createdAt,value
2019-01-08T00:01:41.423Z,7.30
2019-01-08T00:04:09.850Z,7.63
2019-01-08T00:06:38.320Z,7.90
2019-01-08T00:09:06.798Z,7.63
2019-01-08T00:11:35.331Z,7.67
2019-01-08T00:14:03.855Z,7.83
2019-01-08T00:16:32.255Z,8.33
2019-01-08T00:19:00.656Z,8.50
2019-01-08T00:21:29.056Z,8.97
2019-01-08T00:24:00.120Z,8.77
2019-01-08T00:26:28.531Z,9.03
2019-01-08T00:28:58.236Z,8.60
2019-01-08T00:31:26.652Z,8.93
2019-01-08T00:33:57.425Z,9.10
2019-01-08T00:36:25.833Z,8.80
2019-01-08T00:38:54.245Z,8.97
2019-01-08T00:41:22.656Z,9.10
2019-01-08T00:43:51.140Z,9.00
2019-01-08T00:46:19.617Z,9.20
2019-01-08T00:48:48.024Z,8.77
2019-01-08T00:51:16.443Z,8.93
2019-01-08T00:53:44.848Z,8.47
2019-01-08T00:56:13.260Z,8.07
2019-01-08T00:58:41.676Z,9.30
2019-01-08T01:01:10.158Z,9.47
2019-01-08T01:03:38.568Z,9.30
2019-01-08T01:06:06.998Z,9.37
2019-01-08T01:08:35.401Z,8.63
2019-01-08T01:11:06.665Z,9.63
2019-01-08T01:13:35.147Z,9.60
2019-01-08T01:16:03.588Z,9.57
2019-01-08T01:18:32.082Z,9.70
2019-01-08T01:21:00.476Z,9.50
2019-01-08T01:23:28.892Z,9.57
2019-01-08T01:25:57.311Z,10.67
2019-01-08T01:28:25.734Z,9.90
2019-01-08T01:30:54.153Z,9.57
2019-01-08T01:33:22.634Z,9.13
2019-01-08T01:35:51.052Z,9.87
2019-01-08T01:38:19.457Z,9.57
2019-01-08T01:40:47.872Z,9.77
2019-01-08T01:43:16.284Z,8.97
2019-01-08T01:45:44.694Z,9.97
2019-01-08T01:48:15.904Z,9.63
2019-01-08T01:50:44.307Z,9.43
2019-01-08T01:53:12.728Z,9.73
2019-01-08T01:55:41.140Z,10.40
2019-01-08T01:58:09.569Z,10.47
2019-01-08T02:00:37.988Z,10.77
2019-01-08T02:03:06.400Z,11.57
2019-01-08T02:05:34.828Z,10.50
2019-01-08T02:08:03.236Z,10.80
2019-01-08T02:10:31.652Z,11.63
2019-01-08T02:13:00.071Z,10.80
2019-01-08T02:15:28.484Z,11.33
2019-01-08T02:17:58.442Z,11.00
2019-01-08T02:20:26.849Z,10.97
2019-01-08T02:22:55.264Z,10.40
2019-01-08T02:25:23.680Z,10.90
2019-01-08T02:27:52.146Z,11.40
2019-01-08T02:30:20.598Z,11.47
2019-01-08T02:32:49.010Z,11.80
2019-01-08T02:35:17.427Z,12.10
2019-01-08T02:37:45.852Z,11.23
2019-01-08T02:40:14.255Z,10.77
2019-01-08T02:42:43.362Z,11.07
2019-01-08T02:45:11.837Z,10.73
2019-01-08T02:47:40.244Z,10.70
2019-01-08T02:50:08.805Z,10.83
2019-01-08T02:52:37.213Z,10.60
2019-01-08T02:55:05.700Z,11.23
2019-01-08T02:57:34.099Z,10.50
2019-01-08T03:00:02.775Z,10.97
2019-01-08T03:02:31.184Z,10.63
2019-01-08T03:04:59.636Z,10.83
2019-01-08T03:07:28.064Z,10.00
2019-01-08T03:09:56.469Z,10.80
2019-01-08T03:12:24.887Z,10.47
2019-01-08T03:14:53.383Z,10.20
2019-01-08T03:17:21.784Z,9.20
2019-01-08T03:19:50.200Z,9.90
2019-01-08T03:22:20.169Z,9.73
2019-01-08T03:24:48.620Z,9.13
2019-01-08T03:27:17.046Z,9.27
2019-01-08T03:29:45.462Z,9.30
2019-01-08T03:32:13.878Z,9.03
2019-01-08T03:34:42.289Z,9.47
2019-01-08T03:37:10.706Z,8.90
2019-01-08T03:39:39.122Z,9.60
2019-01-08T03:42:09.230Z,8.57
2019-01-08T03:44:37.725Z,9.03
2019-01-08T03:47:06.142Z,8.67
2019-01-08T03:49:34.562Z,8.30
2019-01-08T03:52:02.974Z,7.83
2019-01-08T03:54:31.379Z,8.20
2019-01-08T03:56:59.822Z,7.67
2019-01-08T03:59:28.284Z,8.43
2019-01-08T04:01:56.701Z,8.23
2019-01-08T04:04:25.122Z,7.50
2019-01-08T04:06:53.525Z,8.23
2019-01-08T04:09:21.945Z,7.67
2019-01-08T04:11:50.400Z,7.13
2019-01-08T04:14:18.836Z,7.53
2019-01-08T04:16:47.243Z,7.20
2019-01-08T04:19:15.656Z,6.63
2019-01-08T04:21:44.064Z,7.10
2019-01-08T04:24:12.471Z,6.33
2019-01-08T04:26:40.888Z,6.53
2019-01-08T04:29:09.303Z,5.83
2019-01-08T04:31:37.694Z,6.50
2019-01-08T04:34:06.101Z,6.50
2019-01-08T04:36:34.517Z,6.40
2019-01-08T04:39:02.908Z,6.23
2019-01-08T04:41:31.314Z,5.60
2019-01-08T04:43:59.717Z,5.90
2019-01-08T04:46:28.124Z,5.90
2019-01-08T04:48:56.528Z,5.73
2019-01-08T04:51:24.932Z,7.10
2019-01-08T04:53:53.340Z,6.13
2019-01-08T04:56:21.743Z,6.40
2019-01-08T04:58:50.176Z,7.47
2019-01-08T05:01:18.580Z,6.67
2019-01-08T05:03:47.063Z,6.50
2019-01-08T05:06:15.464Z,6.03
2019-01-08T05:08:43.876Z,6.20
2019-01-08T05:11:12.276Z,6.13
2019-01-08T05:13:40.679Z,6.23
2019-01-08T05:16:09.075Z,6.00
2019-01-08T05:18:37.487Z,6.30
2019-01-08T05:21:05.883Z,5.83
2019-01-08T05:23:34.296Z,6.17
2019-01-08T05:26:02.710Z,5.20
2019-01-08T05:28:31.116Z,5.47
2019-01-08T05:30:59.511Z,4.90
2019-01-08T05:33:27.928Z,5.00
2019-01-08T05:35:56.408Z,4.50
2019-01-08T05:38:24.819Z,4.77
2019-01-08T05:40:53.215Z,4.70
2019-01-08T05:43:21.621Z,4.40
2019-01-08T05:45:50.024Z,3.70
2019-01-08T05:48:18.432Z,3.60
2019-01-08T05:50:46.853Z,3.67
2019-01-08T05:53:15.320Z,3.13
2019-01-08T05:55:43.736Z,3.30
2019-01-08T05:58:12.130Z,3.27
2019-01-08T06:00:40.540Z,2.90
2019-01-08T06:03:08.939Z,3.00
2019-01-08T06:05:37.347Z,2.67
2019-01-08T06:08:05.747Z,2.73
2019-01-08T06:10:34.160Z,2.60
2019-01-08T06:13:02.561Z,2.73
2019-01-08T06:15:30.959Z,2.20
2019-01-08T06:17:59.367Z,2.30
2019-01-08T06:20:27.788Z,2.30
2019-01-08T06:22:56.183Z,2.30
2019-01-08T06:25:24.607Z,2.03
2019-01-08T06:27:52.996Z,2.00
2019-01-08T06:30:24.928Z,2.60
2019-01-08T06:32:51.531Z,1.80
2019-01-08T06:35:19.935Z,1.83
2019-01-08T06:37:48.340Z,1.80
2019-01-08T06:40:16.751Z,2.17
2019-01-08T06:42:45.229Z,1.70
2019-01-08T06:45:13.637Z,1.73
2019-01-08T06:47:42.121Z,1.57
2019-01-08T06:50:10.519Z,1.57
2019-01-08T06:52:38.926Z,1.70
2019-01-08T06:55:08.276Z,1.33
2019-01-08T06:57:37.178Z,1.30
2019-01-08T07:00:08.411Z,1.30
2019-01-08T07:02:38.335Z,1.60
2019-01-08T07:05:07.051Z,1.60
2019-01-08T07:07:35.446Z,1.50
2019-01-08T07:10:04.692Z,1.40
2019-01-08T07:12:33.104Z,1.27
2019-01-08T07:15:01.518Z,1.23
2019-01-08T07:17:29.921Z,1.40
2019-01-08T07:19:58.328Z,1.30
2019-01-08T07:22:26.740Z,1.20
2019-01-08T07:24:55.148Z,1.27
2019-01-08T07:27:23.552Z,1.47
2019-01-08T07:29:51.964Z,1.30
2019-01-08T07:32:20.372Z,1.20
2019-01-08T07:34:48.777Z,1.40
2019-01-08T07:37:17.183Z,1.20
2019-01-08T07:39:45.587Z,1.30
2019-01-08T07:42:13.992Z,1.40
2019-01-08T07:44:42.391Z,1.17
2019-01-08T07:47:10.805Z,1.40
2019-01-08T07:49:39.212Z,1.40
2019-01-08T07:52:07.614Z,1.30
2019-01-08T07:54:36.017Z,1.30
2019-01-08T07:57:04.419Z,1.30
2019-01-08T07:59:32.820Z,1.40
2019-01-08T08:02:01.227Z,1.03
2019-01-08T08:04:29.623Z,1.13
2019-01-08T08:06:58.031Z,1.33
2019-01-08T08:09:26.441Z,1.50
2019-01-08T08:11:54.849Z,1.40
2019-01-08T08:14:23.250Z,1.20
2019-01-08T08:16:51.655Z,1.50
2019-01-08T08:19:20.057Z,1.23
2019-01-08T08:21:48.480Z,1.30
2019-01-08T08:24:16.865Z,1.10
2019-01-08T08:26:45.276Z,1.30
2019-01-08T08:29:13.692Z,1.50
2019-01-08T08:31:42.085Z,1.43
2019-01-08T08:34:10.491Z,1.50
2019-01-08T08:36:38.904Z,1.30
2019-01-08T08:39:07.313Z,1.63
2019-01-08T08:41:35.701Z,1.50
2019-01-08T08:44:04.114Z,1.40
2019-01-08T08:46:32.523Z,1.47
2019-01-08T08:49:00.940Z,1.50
2019-01-08T08:51:29.335Z,1.60
2019-01-08T08:53:57.753Z,1.77
2019-01-08T08:56:26.215Z,1.70
2019-01-08T08:58:54.623Z,1.67
2019-01-08T09:01:23.027Z,1.70
2019-01-08T09:03:51.428Z,2.00
2019-01-08T09:06:19.835Z,1.70
2019-01-08T09:08:48.240Z,2.00
2019-01-08T09:11:16.660Z,1.90
2019-01-08T09:13:45.066Z,1.80
2019-01-08T09:16:13.481Z,1.83
2019-01-08T09:18:41.888Z,2.07
2019-01-08T09:21:10.292Z,2.23
2019-01-08T09:23:38.688Z,2.00
2019-01-08T09:26:07.103Z,2.10
2019-01-08T09:28:35.500Z,2.07
2019-01-08T09:31:03.980Z,2.10
2019-01-08T09:33:32.384Z,2.70
2019-01-08T09:36:00.805Z,2.60
2019-01-08T09:38:29.196Z,2.63
2019-01-08T09:40:57.611Z,2.70
2019-01-08T09:43:26.023Z,3.60
2019-01-08T09:45:54.437Z,2.80
2019-01-08T09:48:22.837Z,2.93
2019-01-08T09:50:51.258Z,3.57
2019-01-08T09:53:19.645Z,3.30
2019-01-08T09:55:48.046Z,3.27
2019-01-08T09:58:16.449Z,3.23
2019-01-08T10:00:44.855Z,3.40
2019-01-08T10:03:13.263Z,3.57
2019-01-08T10:05:41.668Z,3.57
2019-01-08T10:08:10.069Z,4.17
2019-01-08T10:10:38.477Z,4.00
2019-01-08T10:13:06.875Z,3.50
2019-01-08T10:15:35.317Z,2.90
2019-01-08T10:18:03.742Z,3.30
2019-01-08T10:20:32.131Z,4.33
2019-01-08T10:23:00.557Z,3.23
2019-01-08T10:25:28.947Z,2.57
2019-01-08T10:27:57.361Z,3.20
2019-01-08T10:30:25.768Z,3.10
2019-01-08T10:32:54.172Z,3.30
2019-01-08T10:35:22.820Z,3.00
2019-01-08T10:37:51.232Z,3.13
2019-01-08T10:40:19.636Z,3.23
2019-01-08T10:42:48.054Z,3.00
2019-01-08T10:45:16.464Z,3.13
2019-01-08T10:47:44.888Z,3.17
2019-01-08T10:50:13.304Z,3.07
2019-01-08T10:52:41.708Z,3.03
2019-01-08T10:55:10.123Z,2.80
2019-01-08T10:57:38.528Z,3.47
2019-01-08T11:00:09.451Z,3.17
2019-01-08T11:02:37.848Z,3.20
2019-01-08T11:05:06.328Z,3.50
2019-01-08T11:07:34.739Z,3.60
2019-01-08T11:10:03.816Z,3.43
2019-01-08T11:12:32.220Z,3.40
2019-01-08T11:15:00.634Z,3.80
2019-01-08T11:17:29.047Z,3.87
2019-01-08T11:19:57.460Z,3.77
2019-01-08T11:22:25.868Z,3.80
2019-01-08T11:24:54.275Z,4.07
2019-01-08T11:27:22.695Z,4.10
2019-01-08T11:29:51.100Z,4.07
2019-01-08T11:32:19.504Z,3.97
2019-01-08T11:34:47.916Z,4.50
2019-01-08T11:37:16.322Z,4.30
2019-01-08T11:39:44.744Z,4.17
2019-01-08T11:42:13.147Z,3.70
2019-01-08T11:44:41.552Z,3.97
2019-01-08T11:47:09.956Z,4.17
2019-01-08T11:49:38.363Z,3.50
2019-01-08T11:52:06.822Z,3.70
2019-01-08T11:54:40.899Z,3.53
2019-01-08T11:57:05.347Z,3.20
2019-01-08T11:59:33.755Z,3.50
2019-01-08T12:02:02.231Z,3.50
2019-01-08T12:04:30.638Z,3.57
2019-01-08T12:06:59.045Z,3.60
2019-01-08T12:09:27.449Z,3.50
2019-01-08T12:11:55.855Z,3.60
2019-01-08T12:14:24.255Z,3.40
2019-01-08T12:16:52.669Z,3.17
2019-01-08T12:19:21.059Z,3.40
2019-01-08T12:21:49.471Z,3.50
2019-01-08T12:24:17.874Z,3.67
2019-01-08T12:26:46.290Z,3.10
2019-01-08T12:29:14.685Z,3.50
2019-01-08T12:31:43.096Z,2.80
2019-01-08T12:34:11.592Z,3.07
2019-01-08T12:36:39.979Z,3.13
2019-01-08T12:39:08.387Z,2.90
2019-01-08T12:41:36.789Z,2.90
2019-01-08T12:44:05.204Z,2.40
2019-01-08T12:46:33.620Z,2.43
2019-01-08T12:49:02.027Z,2.53
2019-01-08T12:51:30.440Z,2.50
2019-01-08T12:53:58.836Z,3.97
2019-01-08T12:56:27.232Z,2.40
2019-01-08T12:58:55.649Z,2.90
2019-01-08T13:01:24.045Z,2.30
2019-01-08T13:03:52.456Z,2.40
2019-01-08T13:06:20.857Z,2.40
2019-01-08T13:08:49.260Z,2.00
2019-01-08T13:11:17.655Z,2.20
2019-01-08T13:13:46.074Z,4.47
2019-01-08T13:16:14.481Z,2.40
2019-01-08T13:18:42.880Z,2.17
2019-01-08T13:21:11.287Z,2.10
2019-01-08T13:23:39.692Z,2.27
2019-01-08T13:26:08.112Z,2.00
2019-01-08T13:28:36.521Z,2.30
2019-01-08T13:31:04.925Z,2.00
2019-01-08T13:33:33.333Z,2.00
2019-01-08T13:36:01.740Z,2.20
2019-01-08T13:38:30.136Z,2.27
2019-01-08T13:40:58.545Z,1.70
2019-01-08T13:43:26.939Z,1.37
2019-01-08T13:45:55.352Z,1.50
2019-01-08T13:48:23.756Z,1.60
2019-01-08T13:50:52.169Z,1.60
2019-01-08T13:53:20.644Z,1.20
2019-01-08T13:55:49.044Z,2.43
2019-01-08T13:58:17.463Z,1.47
2019-01-08T14:00:45.944Z,1.40
2019-01-08T14:03:14.352Z,1.37
2019-01-08T14:05:42.752Z,1.67
2019-01-08T14:08:11.164Z,1.60
2019-01-08T14:10:40.430Z,1.50
2019-01-08T14:13:08.830Z,1.57
2019-01-08T14:15:37.236Z,1.50
2019-01-08T14:18:05.648Z,1.60
2019-01-08T14:20:34.053Z,1.60
2019-01-08T14:23:02.464Z,1.60
2019-01-08T14:25:30.869Z,1.60
2019-01-08T14:27:59.291Z,1.50
2019-01-08T14:30:27.688Z,1.50
2019-01-08T14:32:56.100Z,1.20
2019-01-08T14:35:24.512Z,1.70
2019-01-08T14:37:52.918Z,1.83
2019-01-08T14:40:21.320Z,1.50
2019-01-08T14:42:49.721Z,1.50
2019-01-08T14:45:18.137Z,1.63
2019-01-08T14:47:46.541Z,1.60
2019-01-08T14:50:14.955Z,2.10
2019-01-08T14:52:43.363Z,1.90
2019-01-08T14:55:11.766Z,1.47
2019-01-08T14:57:40.172Z,1.50
2019-01-08T15:00:10.076Z,1.93
2019-01-08T15:02:38.492Z,1.63
2019-01-08T15:05:06.908Z,2.10
2019-01-08T15:07:35.318Z,1.80
2019-01-08T15:10:04.093Z,1.87
2019-01-08T15:12:32.488Z,2.10
2019-01-08T15:15:00.900Z,1.97
2019-01-08T15:17:29.301Z,2.67
2019-01-08T15:19:57.712Z,2.00
2019-01-08T15:22:26.131Z,2.43
2019-01-08T15:24:54.527Z,2.30
2019-01-08T15:27:22.941Z,1.80
2019-01-08T15:29:51.348Z,2.07
2019-01-08T15:32:19.763Z,2.00
2019-01-08T15:34:48.163Z,2.17
2019-01-08T15:37:16.566Z,2.10
2019-01-08T15:39:45.001Z,1.80
2019-01-08T15:42:13.471Z,2.37
2019-01-08T15:44:41.880Z,2.00
2019-01-08T15:47:10.289Z,1.87
2019-01-08T15:49:38.696Z,3.50
2019-01-08T15:52:07.172Z,2.20
2019-01-08T15:54:35.574Z,2.00
2019-01-08T15:57:04.065Z,1.80
2019-01-08T15:59:32.463Z,4.20
2019-01-08T16:02:00.868Z,2.07
2019-01-08T16:04:29.279Z,4.60
2019-01-08T16:06:57.679Z,2.07
2019-01-08T16:09:26.084Z,3.10
2019-01-08T16:11:54.489Z,2.20
2019-01-08T16:14:22.910Z,2.30
2019-01-08T16:16:51.311Z,2.50
2019-01-08T16:19:19.708Z,2.40
2019-01-08T16:21:48.113Z,2.00
2019-01-08T16:24:16.513Z,2.20
2019-01-08T16:26:44.928Z,2.20
2019-01-08T16:29:22.339Z,1.90
2019-01-08T16:31:50.747Z,2.23
2019-01-08T16:34:19.158Z,2.50
2019-01-08T16:36:48.362Z,2.23
2019-01-08T16:39:16.938Z,2.10
2019-01-08T16:41:45.345Z,2.07
2019-01-08T16:44:13.760Z,2.30
2019-01-08T16:46:42.169Z,2.30
2019-01-08T16:49:10.571Z,2.30
2019-01-08T16:51:38.988Z,2.40
2019-01-08T16:54:07.389Z,2.20
2019-01-08T16:56:35.797Z,2.00
2019-01-08T16:59:04.205Z,2.40
2019-01-08T17:01:32.675Z,2.40
2019-01-08T17:04:01.080Z,2.07
2019-01-08T17:06:29.483Z,2.00
2019-01-08T17:08:57.903Z,1.80
2019-01-08T17:11:26.307Z,2.10
2019-01-08T17:13:54.713Z,1.97
2019-01-08T17:16:23.187Z,1.87
2019-01-08T17:18:51.588Z,2.10
2019-01-08T17:21:19.995Z,2.10
2019-01-08T17:23:48.403Z,2.00
2019-01-08T17:26:16.804Z,2.00
2019-01-08T17:28:45.222Z,2.07
2019-01-08T17:31:13.630Z,1.87
2019-01-08T17:33:42.037Z,2.20
2019-01-08T17:36:10.451Z,5.70
2019-01-08T17:38:38.855Z,2.63
2019-01-08T17:41:07.257Z,2.10
2019-01-08T17:43:35.669Z,2.00
2019-01-08T17:46:04.059Z,3.00
2019-01-08T17:48:32.472Z,2.63
2019-01-08T17:51:00.885Z,3.13
2019-01-08T17:53:29.280Z,5.33
2019-01-08T17:55:57.692Z,2.10
2019-01-08T17:58:34.511Z,2.43
2019-01-08T18:01:06.432Z,3.53
2019-01-08T18:03:42.325Z,2.60
2019-01-08T18:06:05.024Z,2.67
2019-01-08T18:08:33.423Z,2.63
2019-01-08T18:11:01.829Z,2.70
2019-01-08T18:13:30.241Z,2.47
2019-01-08T18:15:58.648Z,2.50
2019-01-08T18:18:27.065Z,3.00
2019-01-08T18:20:55.460Z,2.60
2019-01-08T18:23:24.697Z,2.97
2019-01-08T18:25:53.104Z,2.80
2019-01-08T18:28:21.505Z,2.67
2019-01-08T18:30:49.911Z,2.50
2019-01-08T18:33:18.731Z,2.90
2019-01-08T18:35:47.140Z,2.87
2019-01-08T18:38:15.554Z,2.70
2019-01-08T18:40:43.961Z,2.70
2019-01-08T18:43:14.063Z,2.73
2019-01-08T18:45:42.487Z,2.80
2019-01-08T18:48:10.903Z,2.63
2019-01-08T18:50:39.308Z,3.30
2019-01-08T18:53:07.707Z,2.50
2019-01-08T18:55:36.115Z,2.60
2019-01-08T18:58:04.621Z,2.60
2019-01-08T19:00:33.004Z,2.50
2019-01-08T19:03:01.417Z,2.90
2019-01-08T19:05:29.816Z,2.60
2019-01-08T19:07:58.230Z,2.30
2019-01-08T19:10:26.624Z,2.50
2019-01-08T19:12:55.036Z,2.40
2019-01-08T19:15:23.443Z,2.60
2019-01-08T19:17:51.865Z,2.50
2019-01-08T19:20:20.270Z,2.50
2019-01-08T19:22:48.671Z,2.70
2019-01-08T19:25:17.244Z,2.40
2019-01-08T19:27:45.647Z,2.60
2019-01-08T19:30:14.073Z,2.27
2019-01-08T19:32:42.664Z,2.20
2019-01-08T19:35:11.089Z,2.30
2019-01-08T19:37:39.505Z,2.00
2019-01-08T19:40:08.539Z,2.20
2019-01-08T19:42:36.950Z,2.00
2019-01-08T19:45:06.692Z,2.20
2019-01-08T19:47:35.184Z,1.87
2019-01-08T19:50:04.171Z,1.97
2019-01-08T19:52:32.586Z,2.10
2019-01-08T19:55:00.995Z,1.97
2019-01-08T19:57:29.425Z,1.83
2019-01-08T19:59:57.831Z,2.07
2019-01-08T20:02:26.236Z,1.77
2019-01-08T20:04:54.660Z,2.13
2019-01-08T20:07:23.077Z,1.70
2019-01-08T20:09:51.477Z,1.90
2019-01-08T20:12:19.896Z,2.00
2019-01-08T20:14:48.381Z,1.97
2019-01-08T20:17:16.787Z,1.90
2019-01-08T20:19:45.194Z,2.00
2019-01-08T20:22:13.612Z,1.90
2019-01-08T20:24:42.021Z,1.93
2019-01-08T20:27:10.443Z,2.47
2019-01-08T20:29:38.853Z,1.80
2019-01-08T20:32:07.261Z,1.93
2019-01-08T20:34:35.667Z,1.80
2019-01-08T20:37:04.135Z,1.87
2019-01-08T20:39:32.552Z,2.10
2019-01-08T20:42:01.129Z,2.10
2019-01-08T20:44:29.535Z,1.73
2019-01-08T20:46:57.947Z,1.70
2019-01-08T20:49:26.370Z,1.80
2019-01-08T20:51:54.773Z,1.80
2019-01-08T20:54:23.174Z,2.00
2019-01-08T20:56:51.575Z,1.77
2019-01-08T20:59:19.976Z,1.80
2019-01-08T21:01:48.392Z,1.77
2019-01-08T21:04:16.800Z,1.80
2019-01-08T21:06:45.208Z,2.20
2019-01-08T21:09:13.628Z,2.00
2019-01-08T21:11:42.037Z,1.80
2019-01-08T21:14:10.440Z,1.70
2019-01-08T21:16:38.853Z,2.03
2019-01-08T21:19:07.252Z,1.90
2019-01-08T21:21:35.659Z,1.67
2019-01-08T21:24:04.137Z,1.60
2019-01-08T21:26:32.539Z,1.70
2019-01-08T21:29:00.947Z,6.17
2019-01-08T21:31:29.524Z,3.17
2019-01-08T21:33:57.933Z,1.97
2019-01-08T21:36:26.327Z,2.00
2019-01-08T21:38:54.750Z,2.20
2019-01-08T21:41:23.152Z,2.60
2019-01-08T21:43:51.556Z,2.03
2019-01-08T21:46:19.972Z,2.30
2019-01-08T21:48:48.368Z,2.17
2019-01-08T21:51:16.776Z,2.10
2019-01-08T21:53:45.209Z,2.40
2019-01-08T21:56:13.670Z,2.40
2019-01-08T21:58:42.727Z,2.10
2019-01-08T22:01:11.127Z,2.90
2019-01-08T22:03:39.559Z,2.00
2019-01-08T22:06:08.195Z,2.10
2019-01-08T22:08:36.603Z,2.10
2019-01-08T22:11:05.018Z,2.10
2019-01-08T22:13:33.408Z,2.87
2019-01-08T22:16:01.820Z,1.97
2019-01-08T22:18:30.287Z,2.53
2019-01-08T22:20:58.722Z,2.20
2019-01-08T22:23:27.126Z,2.40
2019-01-08T22:25:55.526Z,2.13
2019-01-08T22:28:23.939Z,2.20
2019-01-08T22:30:52.348Z,2.47
2019-01-08T22:33:20.764Z,2.50
2019-01-08T22:35:49.167Z,3.90
2019-01-08T22:38:17.573Z,2.40
2019-01-08T22:40:45.991Z,2.30
2019-01-08T22:43:14.395Z,2.50
2019-01-08T22:45:42.801Z,3.47
2019-01-08T22:48:11.223Z,2.60
2019-01-08T22:50:39.632Z,2.23
2019-01-08T22:53:08.053Z,2.20
2019-01-08T22:55:36.456Z,2.07
2019-01-08T22:58:04.876Z,2.40
2019-01-08T23:00:38.062Z,2.10
2019-01-08T23:03:06.543Z,2.00
2019-01-08T23:05:34.957Z,2.00
2019-01-08T23:08:03.363Z,2.10
2019-01-08T23:10:31.842Z,2.43
2019-01-08T23:13:00.542Z,2.70
2019-01-08T23:15:29.036Z,2.00
2019-01-08T23:17:57.446Z,1.70
2019-01-08T23:20:25.997Z,2.00
2019-01-08T23:22:54.412Z,2.00
2019-01-08T23:25:22.884Z,1.77
2019-01-08T23:27:51.299Z,2.37
2019-01-08T23:30:19.780Z,1.50
2019-01-08T23:32:48.196Z,1.70
2019-01-08T23:35:19.619Z,1.77
2019-01-08T23:37:46.728Z,1.80
2019-01-08T23:40:15.208Z,1.87
2019-01-08T23:42:43.905Z,2.13
2019-01-08T23:45:12.638Z,1.90
2019-01-08T23:47:41.126Z,2.03
2019-01-08T23:50:09.664Z,2.00
2019-01-08T23:52:50.080Z,2.00
2019-01-08T23:55:21.577Z,2.00
2019-01-08T23:57:50.519Z,2.43
